Time;durP1;ratioP1;P1;durP2;ratioP2;P2;SDS_P1;SDS_P2;PMS_P1;PMS_P2;Temp;Humidity;BMP_temperature;BMP_pressure;BME280_temperature;BME280_humidity;BME280_pressure;Samples;Min_cycle;Max_cycle;Signal;HPM_P1;HPM_P2
2022/11/19 00:01:55;;;;;;;11.00;5.88;;;;;;;;;;5072932;28;20123;-70
2022/11/19 00:04:20;;;;;;;10.05;5.43;;;;;;;;;;5073388;28;20077;-69
2022/11/19 00:06:46;;;;;;;15.60;6.43;;;;;;;;;;5073655;28;20028;-70
2022/11/19 00:09:13;;;;;;;15.82;5.53;;;;;;;;;;5073234;28;20051;-70
2022/11/19 00:14:23;;;;;;;12.23;5.95;;;;;;;;;;5073968;28;20063;-70
2022/11/19 00:16:48;;;;;;;15.40;5.97;;;;;;;;;;5073338;28;20527;-63
2022/11/19 00:19:14;;;;;;;10.90;5.65;;;;;;;;;;5073403;28;20027;-62
2022/11/19 00:21:40;;;;;;;10.20;5.50;;;;;;;;;;5072987;28;20406;-62
2022/11/19 00:24:06;;;;;;;14.18;5.93;;;;;;;;;;5072747;28;20028;-64
2022/11/19 00:26:31;;;;;;;14.18;5.70;;;;;;;;;;5073171;28;20020;-66
2022/11/19 00:28:57;;;;;;;8.85;5.35;;;;;;;;;;5073201;28;20028;-63
2022/11/19 00:31:22;;;;;;;13.20;5.75;;;;;;;;;;5073055;28;20028;-63
2022/11/19 00:33:49;;;;;;;13.43;5.72;;;;;;;;;;5073304;28;20024;-62
2022/11/19 00:36:15;;;;;;;16.10;5.90;;;;;;;;;;5072918;28;20028;-62
2022/11/19 00:38:44;;;;;;;12.70;5.70;;;;;;;;;;5054943;28;20032;-67
2022/11/19 00:41:10;;;;;;;16.38;5.65;;;;;;;;;;5072915;28;20082;-70
2022/11/19 00:43:48;;;;;;;12.00;5.25;;;;;;;;;;5072850;28;20029;-70
2022/11/19 00:46:27;;;;;;;12.27;5.15;;;;;;;;;;5072666;28;20070;-70
2022/11/19 00:48:55;;;;;;;13.18;5.38;;;;;;;;;;5072657;28;20021;-71
2022/11/19 00:51:22;;;;;;;9.02;5.15;;;;;;;;;;5072414;28;20070;-71
2022/11/19 00:53:48;;;;;;;11.43;5.45;;;;;;;;;;5072928;28;20060;-70
2022/11/19 00:56:16;;;;;;;11.23;5.55;;;;;;;;;;5072500;28;20429;-71
2022/11/19 00:58:42;;;;;;;12.32;5.55;;;;;;;;;;5072924;28;20020;-69
2022/11/19 01:01:09;;;;;;;10.27;5.35;;;;;;;;;;5072514;28;20032;-70
2022/11/19 01:03:35;;;;;;;8.82;5.15;;;;;;;;;;5072748;28;20076;-70
2022/11/19 01:06:01;;;;;;;14.70;5.90;;;;;;;;;;5072616;28;20425;-62
2022/11/19 01:08:27;;;;;;;11.60;5.22;;;;;;;;;;5072433;28;20099;-62
2022/11/19 01:10:53;;;;;;;9.57;5.38;;;;;;;;;;5072352;28;20085;-62
2022/11/19 01:13:33;;;;;;;8.65;5.40;;;;;;;;;;5072419;28;20029;-62
2022/11/19 01:16:00;;;;;;;9.32;4.97;;;;;;;;;;5072485;28;20024;-61
2022/11/19 01:18:27;;;;;;;15.38;5.50;;;;;;;;;;5072392;28;20115;-62
2022/11/19 01:20:53;;;;;;;10.35;5.78;;;;;;;;;;5072246;28;20021;-62
2022/11/19 01:23:18;;;;;;;14.05;5.28;;;;;;;;;;5072288;28;20483;-62
2022/11/19 01:25:44;;;;;;;8.90;4.97;;;;;;;;;;5072601;28;20078;-62
2022/11/19 01:28:10;;;;;;;11.00;5.25;;;;;;;;;;5071911;28;20025;-63
2022/11/19 01:30:39;;;;;;;9.70;5.00;;;;;;;;;;5072561;28;20031;-62
2022/11/19 01:33:05;;;;;;;13.75;5.22;;;;;;;;;;5072525;28;20028;-61
2022/11/19 01:35:30;;;;;;;10.80;5.03;;;;;;;;;;5072217;28;20426;-61
2022/11/19 01:37:56;;;;;;;10.98;5.82;;;;;;;;;;5072170;28;20104;-62
2022/11/19 01:40:21;;;;;;;10.20;5.10;;;;;;;;;;5072050;28;20467;-62
2022/11/19 01:42:50;;;;;;;14.38;5.53;;;;;;;;;;5054195;28;20059;-62
2022/11/19 01:45:36;;;;;;;13.35;5.07;;;;;;;;;;5072159;28;20382;-70
2022/11/19 01:48:02;;;;;;;10.90;5.30;;;;;;;;;;5072093;28;20021;-61
2022/11/19 01:50:33;;;;;;;10.40;5.28;;;;;;;;;;5071955;28;20104;-62
2022/11/19 01:52:59;;;;;;;11.00;5.13;;;;;;;;;;5072166;28;20086;-67
2022/11/19 01:55:27;;;;;;;9.10;4.88;;;;;;;;;;5072328;28;20024;-62
2022/11/19 01:58:00;;;;;;;10.90;5.03;;;;;;;;;;5072097;28;20375;-62
2022/11/19 02:00:26;;;;;;;9.75;5.25;;;;;;;;;;5072529;28;20124;-63
2022/11/19 02:02:52;;;;;;;10.50;5.10;;;;;;;;;;5075949;28;20032;-62
2022/11/19 02:05:19;;;;;;;8.15;4.68;;;;;;;;;;5075894;28;20025;-61
2022/11/19 02:07:52;;;;;;;8.95;4.80;;;;;;;;;;5076112;28;20028;-69
2022/11/19 02:10:18;;;;;;;9.95;5.18;;;;;;;;;;5075603;28;20040;-68
2022/11/19 02:12:56;;;;;;;10.82;4.88;;;;;;;;;;5058177;28;20028;-66
2022/11/19 02:15:34;;;;;;;10.95;4.97;;;;;;;;;;5075795;28;20047;-69
2022/11/19 02:18:08;;;;;;;9.45;5.10;;;;;;;;;;5075684;28;20127;-68
2022/11/19 02:21:01;;;;;;;8.60;4.93;;;;;;;;;;5075623;28;20496;-69
2022/11/19 02:23:58;;;;;;;11.25;4.70;;;;;;;;;;5075851;28;20058;-69
2022/11/19 02:26:42;;;;;;;9.98;5.10;;;;;;;;;;5075404;28;20031;-63
2022/11/19 02:29:29;;;;;;;13.63;5.20;;;;;;;;;;5057864;28;20409;-67
2022/11/19 02:32:02;;;;;;;12.38;5.32;;;;;;;;;;5075423;28;20384;-69
2022/11/19 02:34:36;;;;;;;10.38;4.90;;;;;;;;;;5075373;28;20021;-70
2022/11/19 02:37:32;;;;;;;9.52;4.93;;;;;;;;;;5057432;28;20031;-69
2022/11/19 02:40:14;;;;;;;8.40;4.72;;;;;;;;;;5046117;28;20508;-69
2022/11/19 02:42:58;;;;;;;9.40;4.85;;;;;;;;;;5075451;28;20047;-68
2022/11/19 02:45:26;;;;;;;8.45;5.00;;;;;;;;;;5075178;28;20035;-68
2022/11/19 02:47:57;;;;;;;9.98;4.63;;;;;;;;;;5074956;28;20506;-68
2022/11/19 02:50:30;;;;;;;10.38;4.82;;;;;;;;;;5075022;28;20025;-69
2022/11/19 02:52:56;;;;;;;8.85;4.63;;;;;;;;;;5075022;28;20031;-69
2022/11/19 02:55:22;;;;;;;10.23;4.82;;;;;;;;;;5074984;28;20372;-70
2022/11/19 02:57:59;;;;;;;8.25;4.57;;;;;;;;;;5074906;28;20020;-69
2022/11/19 03:06:13;;;;;;;9.93;4.82;;;;;;;;;;5059991;28;20043;-70
2022/11/19 03:08:39;;;;;;;7.97;4.43;;;;;;;;;;5074491;28;20472;-69
2022/11/19 03:11:13;;;;;;;8.02;4.60;;;;;;;;;;5075015;28;20111;-70
2022/11/19 03:16:53;;;;;;;8.05;4.78;;;;;;;;;;5074621;28;20077;-69
2022/11/19 03:19:31;;;;;;;9.85;4.85;;;;;;;;;;5074594;28;20039;-71
2022/11/19 03:22:05;;;;;;;8.10;4.45;;;;;;;;;;5074644;28;20031;-69
2022/11/19 03:24:44;;;;;;;9.15;4.50;;;;;;;;;;5074502;28;20021;-70
2022/11/19 03:27:17;;;;;;;8.75;4.50;;;;;;;;;;5074623;28;20443;-70
2022/11/19 03:29:50;;;;;;;8.73;4.25;;;;;;;;;;5074443;28;20028;-69
2022/11/19 03:32:25;;;;;;;7.45;4.28;;;;;;;;;;5074299;28;20112;-70
2022/11/19 03:34:56;;;;;;;10.20;4.72;;;;;;;;;;5074309;28;20543;-69
2022/11/19 03:37:23;;;;;;;9.63;4.57;;;;;;;;;;5074244;28;20112;-70
2022/11/19 03:39:50;;;;;;;8.77;4.47;;;;;;;;;;5074218;28;20021;-69
2022/11/19 03:42:18;;;;;;;7.55;4.60;;;;;;;;;;5074094;28;20438;-68
2022/11/19 03:44:49;;;;;;;8.50;4.63;;;;;;;;;;5074002;28;20020;-69
2022/11/19 03:47:19;;;;;;;8.63;4.53;;;;;;;;;;5074345;28;20112;-69
2022/11/19 03:49:47;;;;;;;9.43;4.90;;;;;;;;;;5074348;28;20418;-68
2022/11/19 03:52:16;;;;;;;7.63;4.55;;;;;;;;;;5073827;28;20028;-69
2022/11/19 03:54:42;;;;;;;9.20;4.75;;;;;;;;;;5074191;28;20070;-66
2022/11/19 03:57:11;;;;;;;11.48;4.60;;;;;;;;;;5073695;28;20608;-62
2022/11/19 03:59:36;;;;;;;9.38;4.68;;;;;;;;;;5073922;28;20028;-62
2022/11/19 04:02:05;;;;;;;9.98;4.75;;;;;;;;;;5073763;28;20029;-63
2022/11/19 04:04:37;;;;;;;8.98;4.53;;;;;;;;;;5073549;28;20021;-62
2022/11/19 04:07:13;;;;;;;8.70;4.80;;;;;;;;;;5073667;28;20472;-61
2022/11/19 04:09:39;;;;;;;9.02;4.57;;;;;;;;;;5073394;28;20048;-62
2022/11/19 04:12:07;;;;;;;9.55;4.43;;;;;;;;;;5073659;28;20048;-62
2022/11/19 04:14:33;;;;;;;6.97;4.45;;;;;;;;;;5073420;28;20034;-62
2022/11/19 04:16:59;;;;;;;8.80;4.50;;;;;;;;;;5073398;28;20103;-62
2022/11/19 04:19:24;;;;;;;8.07;4.22;;;;;;;;;;5073319;28;20020;-62
2022/11/19 04:21:50;;;;;;;6.80;4.47;;;;;;;;;;5073251;28;20435;-62
2022/11/19 04:24:16;;;;;;;8.75;4.18;;;;;;;;;;5073018;28;20024;-62
2022/11/19 04:26:41;;;;;;;8.98;4.93;;;;;;;;;;5073058;28;20048;-62
2022/11/19 04:29:07;;;;;;;9.43;4.70;;;;;;;;;;5073485;28;20028;-69
2022/11/19 04:31:32;;;;;;;7.60;4.40;;;;;;;;;;5073157;28;20033;-69
2022/11/19 04:33:58;;;;;;;6.63;4.28;;;;;;;;;;5073214;28;20039;-70
2022/11/19 04:36:23;;;;;;;8.10;4.20;;;;;;;;;;5072804;28;20025;-70
2022/11/19 04:38:49;;;;;;;11.27;5.03;;;;;;;;;;5072955;28;20111;-70
2022/11/19 04:41:14;;;;;;;7.13;4.40;;;;;;;;;;5073076;28;20032;-62
2022/11/19 04:43:40;;;;;;;8.80;4.53;;;;;;;;;;5073132;28;20099;-61
2022/11/19 04:46:05;;;;;;;6.85;4.10;;;;;;;;;;5072938;28;20475;-65
2022/11/19 04:48:31;;;;;;;7.45;4.30;;;;;;;;;;5072915;28;20108;-60
2022/11/19 04:50:56;;;;;;;5.80;3.78;;;;;;;;;;5054878;28;20020;-61
2022/11/19 04:53:22;;;;;;;7.30;4.13;;;;;;;;;;5072858;28;20166;-61
2022/11/19 04:55:47;;;;;;;6.55;4.00;;;;;;;;;;5072868;28;20029;-61
2022/11/19 04:58:13;;;;;;;6.70;4.35;;;;;;;;;;5072468;28;20035;-61
2022/11/19 05:00:39;;;;;;;7.57;3.95;;;;;;;;;;5072601;28;20051;-61
2022/11/19 05:03:04;;;;;;;7.03;4.10;;;;;;;;;;5072453;28;20107;-61
2022/11/19 05:05:30;;;;;;;9.25;4.45;;;;;;;;;;5072052;28;20017;-61
2022/11/19 05:07:55;;;;;;;5.90;4.22;;;;;;;;;;5071205;28;20021;-62
2022/11/19 05:10:21;;;;;;;8.68;4.15;;;;;;;;;;5071053;28;20421;-61
2022/11/19 05:12:46;;;;;;;6.47;3.92;;;;;;;;;;5052712;28;20533;-62
2022/11/19 05:15:12;;;;;;;8.48;4.55;;;;;;;;;;5070574;28;20486;-70
2022/11/19 05:17:37;;;;;;;6.97;4.30;;;;;;;;;;5070453;28;20384;-71
2022/11/19 05:20:03;;;;;;;7.18;4.22;;;;;;;;;;5070690;28;20119;-62
2022/11/19 05:22:29;;;;;;;7.78;4.25;;;;;;;;;;5070215;28;20031;-61
2022/11/19 05:24:55;;;;;;;7.88;4.35;;;;;;;;;;5070429;28;20052;-63
2022/11/19 05:27:20;;;;;;;9.18;4.82;;;;;;;;;;5072099;28;20400;-61
2022/11/19 05:29:46;;;;;;;9.15;4.32;;;;;;;;;;5072222;28;20165;-62
2022/11/19 05:32:11;;;;;;;5.65;4.07;;;;;;;;;;5072126;28;20098;-61
2022/11/19 05:34:37;;;;;;;8.20;4.75;;;;;;;;;;5072556;28;20161;-61
2022/11/19 05:37:02;;;;;;;7.15;4.10;;;;;;;;;;5071685;28;20028;-61
2022/11/19 05:39:28;;;;;;;7.95;4.53;;;;;;;;;;5072478;28;20027;-61
2022/11/19 05:41:54;;;;;;;8.00;4.10;;;;;;;;;;5072176;28;20440;-68
2022/11/19 05:44:19;;;;;;;6.47;4.13;;;;;;;;;;5071233;28;20032;-69
2022/11/19 05:46:45;;;;;;;8.65;4.68;;;;;;;;;;5072413;28;20028;-69
2022/11/19 05:49:10;;;;;;;6.80;4.40;;;;;;;;;;5072161;28;20035;-69
2022/11/19 05:51:36;;;;;;;7.30;4.20;;;;;;;;;;5071465;28;20391;-68
2022/11/19 05:54:02;;;;;;;5.30;3.88;;;;;;;;;;5072285;28;20043;-68
2022/11/19 05:56:27;;;;;;;6.68;4.15;;;;;;;;;;5071809;28;20020;-63
2022/11/19 05:58:53;;;;;;;7.95;4.97;;;;;;;;;;5072187;28;20456;-63
2022/11/19 06:01:26;;;;;;;6.53;3.97;;;;;;;;;;5072289;28;20416;-69
2022/11/19 06:03:52;;;;;;;8.65;4.57;;;;;;;;;;5072090;28;20033;-68
2022/11/19 06:06:17;;;;;;;7.28;4.40;;;;;;;;;;5071725;28;20422;-68
2022/11/19 06:08:43;;;;;;;6.53;4.40;;;;;;;;;;5071759;28;20349;-66
2022/11/19 06:11:46;;;;;;;7.55;4.22;;;;;;;;;;5071564;28;20136;-68
2022/11/19 06:13:54;;;;;;;11.68;3.60;;;;;;;;;;5071180;28;20047;-68
2022/11/19 06:16:19;;;;;;;6.57;4.40;;;;;;;;;;5072034;28;20024;-68
2022/11/19 06:18:45;;;;;;;6.97;4.13;;;;;;;;;;5071875;28;20021;-68
2022/11/19 06:21:10;;;;;;;5.75;3.97;;;;;;;;;;5071625;28;20039;-69
2022/11/19 06:23:36;;;;;;;7.90;4.28;;;;;;;;;;5071727;28;20059;-69
2022/11/19 06:26:02;;;;;;;6.60;4.30;;;;;;;;;;5071651;28;20020;-68
2022/11/19 06:28:27;;;;;;;6.10;4.13;;;;;;;;;;5071531;28;20563;-68
2022/11/19 06:30:53;;;;;;;5.93;4.20;;;;;;;;;;5071989;28;20302;-71
2022/11/19 06:33:18;;;;;;;5.85;4.30;;;;;;;;;;5054102;28;20033;-68
2022/11/19 06:35:44;;;;;;;5.57;4.32;;;;;;;;;;5071631;28;20471;-69
2022/11/19 06:38:09;;;;;;;5.47;4.15;;;;;;;;;;5071835;28;20035;-68
2022/11/19 06:40:35;;;;;;;7.45;4.28;;;;;;;;;;5071642;28;20024;-70
2022/11/19 06:43:00;;;;;;;6.35;4.30;;;;;;;;;;5071788;28;20029;-67
2022/11/19 06:45:26;;;;;;;7.38;3.92;;;;;;;;;;5071562;28;20070;-71
2022/11/19 06:47:51;;;;;;;7.28;3.70;;;;;;;;;;5072346;28;20035;-61
2022/11/19 06:50:17;;;;;;;6.32;3.90;;;;;;;;;;5075067;28;20059;-68
2022/11/19 06:52:43;;;;;;;9.50;4.43;;;;;;;;;;5075047;28;20108;-63
2022/11/19 06:55:08;;;;;;;6.10;4.00;;;;;;;;;;5075322;28;20021;-68
2022/11/19 06:57:34;;;;;;;5.35;3.85;;;;;;;;;;5075195;28;20031;-67
2022/11/19 07:00:00;;;;;;;6.05;4.03;;;;;;;;;;5074879;28;20031;-70
2022/11/19 07:02:25;;;;;;;6.28;4.13;;;;;;;;;;5074835;28;20028;-68
2022/11/19 07:04:51;;;;;;;6.97;4.35;;;;;;;;;;5074845;28;20472;-69
2022/11/19 07:07:16;;;;;;;5.32;3.92;;;;;;;;;;5056838;28;20028;-69
2022/11/19 07:09:42;;;;;;;7.82;4.38;;;;;;;;;;5074476;28;20052;-69
2022/11/19 07:12:08;;;;;;;5.22;4.13;;;;;;;;;;5074677;28;20024;-69
2022/11/19 07:14:34;;;;;;;7.25;4.40;;;;;;;;;;5074447;28;20027;-68
2022/11/19 07:17:00;;;;;;;7.85;4.35;;;;;;;;;;5074607;28;20099;-70
2022/11/19 07:19:26;;;;;;;6.55;3.85;;;;;;;;;;5074545;28;20559;-64
2022/11/19 07:21:51;;;;;;;6.57;4.38;;;;;;;;;;5074120;28;20027;-64
2022/11/19 07:24:17;;;;;;;6.53;3.95;;;;;;;;;;5074251;28;20032;-61
2022/11/19 07:26:43;;;;;;;7.38;3.90;;;;;;;;;;5074747;28;20028;-63
2022/11/19 07:29:11;;;;;;;6.57;4.50;;;;;;;;;;5074988;28;20460;-62
2022/11/19 07:31:36;;;;;;;5.85;4.45;;;;;;;;;;5074308;28;20067;-62
2022/11/19 07:34:06;;;;;;;5.75;3.83;;;;;;;;;;5070664;28;20044;-61
2022/11/19 07:36:32;;;;;;;7.13;4.03;;;;;;;;;;5068698;28;20341;-64
2022/11/19 07:38:57;;;;;;;8.10;4.53;;;;;;;;;;5069648;28;20029;-66
2022/11/19 07:44:08;;;;;;;7.80;4.68;;;;;;;;;;5069070;28;20339;-70
2022/11/19 07:46:34;;;;;;;4.95;3.53;;;;;;;;;;5051137;28;20052;-62
2022/11/19 07:49:00;;;;;;;5.18;4.03;;;;;;;;;;5069710;28;20460;-64
2022/11/19 07:51:26;;;;;;;7.78;4.25;;;;;;;;;;5069387;28;20024;-73
2022/11/19 07:53:53;;;;;;;7.57;4.47;;;;;;;;;;5068725;28;20017;-67
2022/11/19 07:56:19;;;;;;;5.90;4.05;;;;;;;;;;5063940;28;20077;-70
2022/11/19 07:58:44;;;;;;;6.53;4.15;;;;;;;;;;5054291;28;20119;-71
2022/11/19 08:01:12;;;;;;;4.95;3.90;;;;;;;;;;5073006;28;20048;-71
2022/11/19 08:03:38;;;;;;;6.68;3.90;;;;;;;;;;5072119;28;20025;-72
2022/11/19 08:06:07;;;;;;;6.32;4.40;;;;;;;;;;5072134;28;20414;-63
2022/11/19 08:08:33;;;;;;;6.55;4.30;;;;;;;;;;5072081;28;20108;-63
2022/11/19 08:11:04;;;;;;;7.78;4.53;;;;;;;;;;5070406;28;20131;-62
2022/11/19 08:13:30;;;;;;;5.25;4.13;;;;;;;;;;5071868;28;20047;-66
2022/11/19 08:16:03;;;;;;;5.32;3.88;;;;;;;;;;5072251;28;20040;-62
2022/11/19 08:18:29;;;;;;;6.97;3.92;;;;;;;;;;5050584;28;20029;-62
2022/11/19 08:20:54;;;;;;;6.35;3.97;;;;;;;;;;5051887;28;20079;-62
2022/11/19 08:23:23;;;;;;;8.13;4.43;;;;;;;;;;5051716;28;20071;-62
2022/11/19 08:25:49;;;;;;;7.32;4.10;;;;;;;;;;5051741;28;20033;-62
2022/11/19 08:28:15;;;;;;;6.93;4.55;;;;;;;;;;5051516;28;20096;-62
2022/11/19 08:30:40;;;;;;;5.60;3.92;;;;;;;;;;5051604;28;20029;-61
2022/11/19 08:33:07;;;;;;;7.22;4.63;;;;;;;;;;5051537;28;20044;-63
2022/11/19 08:35:33;;;;;;;6.22;4.28;;;;;;;;;;5051599;28;20385;-63
2022/11/19 08:37:59;;;;;;;7.15;4.20;;;;;;;;;;5051600;28;20112;-65
2022/11/19 08:40:25;;;;;;;7.13;4.13;;;;;;;;;;5051651;28;20111;-63
2022/11/19 08:43:00;;;;;;;5.90;4.35;;;;;;;;;;5051652;28;20086;-64
2022/11/19 08:45:31;;;;;;;6.00;4.30;;;;;;;;;;5033502;28;20029;-62
2022/11/19 08:47:58;;;;;;;6.13;4.13;;;;;;;;;;5033451;28;20033;-63
2022/11/19 08:50:24;;;;;;;6.90;4.40;;;;;;;;;;5068467;28;20055;-68
2022/11/19 08:53:00;;;;;;;8.65;4.65;;;;;;;;;;5071119;28;20031;-70
2022/11/19 08:55:28;;;;;;;6.78;4.63;;;;;;;;;;5053139;28;20476;-63
2022/11/19 08:58:01;;;;;;;5.15;4.00;;;;;;;;;;5070994;28;20060;-63
2022/11/19 09:00:27;;;;;;;6.80;4.55;;;;;;;;;;5053107;28;20028;-63
2022/11/19 09:02:53;;;;;;;7.13;4.53;;;;;;;;;;5070985;28;20538;-64
2022/11/19 09:05:18;;;;;;;5.45;4.25;;;;;;;;;;5071109;28;20101;-63
2022/11/19 09:07:44;;;;;;;7.07;4.38;;;;;;;;;;5068263;28;20029;-64
2022/11/19 09:10:10;;;;;;;6.93;4.60;;;;;;;;;;5048761;28;20519;-62
2022/11/19 09:12:35;;;;;;;7.18;4.30;;;;;;;;;;5037091;28;20417;-62
2022/11/19 09:15:01;;;;;;;6.47;4.22;;;;;;;;;;5031034;28;20017;-62
2022/11/19 09:17:26;;;;;;;6.18;4.40;;;;;;;;;;5031175;28;20040;-62
2022/11/19 09:19:52;;;;;;;8.40;4.43;;;;;;;;;;5031245;28;20484;-71
2022/11/19 09:22:18;;;;;;;7.85;4.72;;;;;;;;;;5030850;28;20456;-70
2022/11/19 09:24:43;;;;;;;6.90;4.70;;;;;;;;;;5030820;28;20031;-68
2022/11/19 09:27:09;;;;;;;7.07;4.78;;;;;;;;;;5030893;28;20025;-69
2022/11/19 09:29:34;;;;;;;7.65;4.50;;;;;;;;;;5030837;28;20067;-70
2022/11/19 09:32:00;;;;;;;7.13;4.60;;;;;;;;;;5030711;28;20029;-71
2022/11/19 09:34:25;;;;;;;6.57;4.43;;;;;;;;;;5030675;28;20024;-69
2022/11/19 09:36:51;;;;;;;5.32;4.20;;;;;;;;;;5045264;28;20033;-72
2022/11/19 09:39:17;;;;;;;5.13;4.35;;;;;;;;;;5050586;28;20049;-63
2022/11/19 09:42:05;;;;;;;6.43;4.90;;;;;;;;;;5043751;28;20030;-68
2022/11/19 09:44:33;;;;;;;5.22;4.30;;;;;;;;;;5030645;28;20037;-68
2022/11/19 09:47:30;;;;;;;5.95;5.00;;;;;;;;;;5030637;28;20049;-62
2022/11/19 09:50:17;;;;;;;6.80;4.85;;;;;;;;;;5030561;28;20028;-71
2022/11/19 09:52:50;;;;;;;6.68;4.53;;;;;;;;;;5030673;28;20084;-71
2022/11/19 09:55:36;;;;;;;7.65;4.40;;;;;;;;;;5030490;28;20028;-70
2022/11/19 09:58:09;;;;;;;7.60;4.78;;;;;;;;;;5030435;28;20563;-65
2022/11/19 10:00:35;;;;;;;6.28;4.40;;;;;;;;;;5030561;28;20086;-71
2022/11/19 10:03:10;;;;;;;7.47;4.93;;;;;;;;;;5030726;28;20033;-70
2022/11/19 10:05:56;;;;;;;6.70;4.30;;;;;;;;;;5030758;28;20040;-70
2022/11/19 10:08:44;;;;;;;6.40;4.35;;;;;;;;;;5030340;28;20034;-71
2022/11/19 10:11:47;;;;;;;7.05;4.78;;;;;;;;;;5068785;28;20634;-69
2022/11/19 10:14:12;;;;;;;6.60;4.55;;;;;;;;;;5070254;28;20025;-69
2022/11/19 10:17:04;;;;;;;7.35;4.82;;;;;;;;;;5070303;28;20035;-70
2022/11/19 10:19:41;;;;;;;6.53;4.85;;;;;;;;;;5059577;28;20055;-68
2022/11/19 10:22:21;;;;;;;6.53;4.82;;;;;;;;;;5071554;28;20109;-71
2022/11/19 10:25:17;;;;;;;5.97;4.50;;;;;;;;;;5074349;28;20035;-70
2022/11/19 10:27:53;;;;;;;5.90;4.40;;;;;;;;;;5072570;28;20097;-65
2022/11/19 10:30:22;;;;;;;7.40;5.03;;;;;;;;;;5073875;28;20039;-69
2022/11/19 10:32:58;;;;;;;7.85;4.70;;;;;;;;;;5073993;28;20115;-71
2022/11/19 10:35:39;;;;;;;7.70;5.10;;;;;;;;;;5071248;28;20029;-69
2022/11/19 10:38:29;;;;;;;7.57;4.95;;;;;;;;;;5073991;28;20024;-61
2022/11/19 10:41:02;;;;;;;6.97;4.45;;;;;;;;;;5073708;28;20040;-63
2022/11/19 10:43:34;;;;;;;6.70;4.68;;;;;;;;;;5073845;28;20115;-62
2022/11/19 10:46:02;;;;;;;5.60;4.10;;;;;;;;;;5073739;28;20016;-61
2022/11/19 10:48:40;;;;;;;7.50;4.97;;;;;;;;;;5073714;28;20025;-62
2022/11/19 10:51:30;;;;;;;6.28;4.47;;;;;;;;;;5073597;28;20021;-62
2022/11/19 10:53:56;;;;;;;7.45;5.13;;;;;;;;;;5074027;28;20027;-66
2022/11/19 10:56:38;;;;;;;6.93;4.82;;;;;;;;;;5073757;28;20029;-65
2022/11/19 10:59:06;;;;;;;8.38;4.80;;;;;;;;;;5073478;28;20028;-61
2022/11/19 11:01:35;;;;;;;6.97;4.53;;;;;;;;;;5073492;28;20056;-68
2022/11/19 11:04:18;;;;;;;8.40;4.75;;;;;;;;;;5073233;28;20063;-69
2022/11/19 11:06:56;;;;;;;7.05;4.93;;;;;;;;;;5073285;28;20029;-70
2022/11/19 11:09:42;;;;;;;5.50;4.40;;;;;;;;;;5073041;28;20083;-69
2022/11/19 11:15:27;;;;;;;7.05;4.47;;;;;;;;;;5073385;28;20070;-69
2022/11/19 11:18:01;;;;;;;5.40;4.65;;;;;;;;;;5068503;28;20193;-68
2022/11/19 11:20:27;;;;;;;6.93;4.50;;;;;;;;;;5072997;28;20697;-70
2022/11/19 11:23:20;;;;;;;7.43;4.88;;;;;;;;;;5072842;28;20043;-60
2022/11/19 11:25:59;;;;;;;6.18;4.75;;;;;;;;;;5073013;28;20060;-69
2022/11/19 11:28:24;;;;;;;6.07;4.50;;;;;;;;;;5072863;28;20472;-69
2022/11/19 11:30:54;;;;;;;8.93;5.10;;;;;;;;;;5073183;28;20093;-69
2022/11/19 11:33:23;;;;;;;6.32;4.50;;;;;;;;;;5071899;28;20480;-67
2022/11/19 11:35:49;;;;;;;6.45;4.72;;;;;;;;;;5072808;28;20025;-66
2022/11/19 11:38:20;;;;;;;6.97;4.80;;;;;;;;;;5072681;28;20024;-67
2022/11/19 11:41:00;;;;;;;6.82;4.70;;;;;;;;;;5072663;28;20028;-68
2022/11/19 11:43:27;;;;;;;7.43;4.97;;;;;;;;;;5072589;28;20029;-68
2022/11/19 11:46:01;;;;;;;6.70;4.47;;;;;;;;;;5072490;28;20025;-69
2022/11/19 11:48:35;;;;;;;6.28;4.93;;;;;;;;;;5072400;28;20369;-67
2022/11/19 11:51:01;;;;;;;5.28;4.30;;;;;;;;;;5072369;28;20020;-67
2022/11/19 11:53:29;;;;;;;8.35;4.80;;;;;;;;;;5072486;28;20074;-68
2022/11/19 11:55:57;;;;;;;6.00;5.03;;;;;;;;;;5072557;28;20028;-62
2022/11/19 11:58:29;;;;;;;5.78;4.45;;;;;;;;;;5072294;28;20035;-70
2022/11/19 12:01:12;;;;;;;5.25;4.45;;;;;;;;;;5072412;28;20052;-70
2022/11/19 12:03:51;;;;;;;6.35;4.80;;;;;;;;;;5072262;28;20114;-62
2022/11/19 12:06:19;;;;;;;8.80;4.90;;;;;;;;;;5072058;28;20028;-63
2022/11/19 12:09:03;;;;;;;5.82;4.75;;;;;;;;;;5071987;28;20300;-62
2022/11/19 12:11:55;;;;;;;5.53;4.45;;;;;;;;;;5072097;28;20036;-64
2022/11/19 12:14:26;;;;;;;6.43;4.68;;;;;;;;;;5071957;28;20028;-63
2022/11/19 12:17:23;;;;;;;7.03;4.80;;;;;;;;;;5071794;28;20025;-70
2022/11/19 12:20:07;;;;;;;5.57;4.22;;;;;;;;;;5071884;28;20052;-65
2022/11/19 12:22:51;;;;;;;6.50;4.40;;;;;;;;;;5071689;28;20518;-68
2022/11/19 12:25:22;;;;;;;4.95;4.00;;;;;;;;;;5072077;28;20059;-72
2022/11/19 12:28:05;;;;;;;14.77;9.43;;;;;;;;;;5071662;28;20025;-70
2022/11/19 12:30:54;;;;;;;11.98;7.25;;;;;;;;;;5070453;28;20048;-67
2022/11/19 12:33:37;;;;;;;9.90;6.93;;;;;;;;;;5055085;28;20045;-67
2022/11/19 12:36:25;;;;;;;9.80;6.20;;;;;;;;;;5071156;28;20062;-66
2022/11/19 12:39:20;;;;;;;8.38;6.00;;;;;;;;;;5053348;28;20067;-66
2022/11/19 12:42:16;;;;;;;9.65;5.65;;;;;;;;;;5066013;28;20067;-64
2022/11/19 12:45:16;;;;;;;7.22;5.43;;;;;;;;;;5071276;28;20104;-68
2022/11/19 12:47:44;;;;;;;7.35;5.18;;;;;;;;;;5071491;28;20048;-69
2022/11/19 12:50:21;;;;;;;6.10;4.70;;;;;;;;;;5071062;28;20029;-69
2022/11/19 12:53:22;;;;;;;7.10;4.80;;;;;;;;;;5071266;28;20028;-68
2022/11/19 12:56:42;;;;;;;9.30;5.20;;;;;;;;;;5045722;28;20079;-70
2022/11/19 12:59:08;;;;;;;10.40;5.07;;;;;;;;;;5046366;28;20090;-67
2022/11/19 13:01:39;;;;;;;7.70;5.18;;;;;;;;;;5071029;28;20036;-68
2022/11/19 13:04:21;;;;;;;7.68;5.50;;;;;;;;;;5071048;28;20032;-68
2022/11/19 13:06:56;;;;;;;9.60;5.72;;;;;;;;;;5071046;28;20112;-68
2022/11/19 13:09:37;;;;;;;10.50;5.78;;;;;;;;;;5070829;28;20053;-66
2022/11/19 13:12:13;;;;;;;9.73;5.10;;;;;;;;;;5071013;28;20024;-67
2022/11/19 13:14:44;;;;;;;6.40;5.30;;;;;;;;;;5071159;28;20048;-67
2022/11/19 13:17:26;;;;;;;6.80;4.78;;;;;;;;;;5070834;28;20096;-68
2022/11/19 13:20:00;;;;;;;7.55;5.30;;;;;;;;;;5070866;28;20047;-67
2022/11/19 13:22:31;;;;;;;7.15;5.35;;;;;;;;;;5070621;28;20032;-68
2022/11/19 13:25:16;;;;;;;7.15;5.28;;;;;;;;;;5071121;28;20024;-69
2022/11/19 13:27:43;;;;;;;8.13;5.10;;;;;;;;;;5070569;28;20463;-68
2022/11/19 13:30:21;;;;;;;9.02;5.72;;;;;;;;;;5070964;28;20020;-69
2022/11/19 13:33:18;;;;;;;6.43;4.90;;;;;;;;;;5070913;28;20075;-68
2022/11/19 13:36:02;;;;;;;6.18;5.05;;;;;;;;;;5070913;28;20032;-67
2022/11/19 13:38:45;;;;;;;7.15;5.50;;;;;;;;;;5070538;28;20024;-69
2022/11/19 13:44:40;;;;;;;7.43;5.00;;;;;;;;;;5065498;28;20067;-63
2022/11/19 13:47:20;;;;;;;7.13;4.93;;;;;;;;;;5070658;28;20025;-65
2022/11/19 13:49:52;;;;;;;7.57;5.15;;;;;;;;;;5070456;28;20055;-67
2022/11/19 13:52:21;;;;;;;7.60;4.95;;;;;;;;;;5070845;28;20035;-69
2022/11/19 13:54:47;;;;;;;10.30;5.80;;;;;;;;;;5070471;28;20112;-70
2022/11/19 13:57:36;;;;;;;8.27;5.68;;;;;;;;;;5072426;28;20024;-71
2022/11/19 14:00:17;;;;;;;10.95;5.13;;;;;;;;;;5074768;28;20070;-69
2022/11/19 14:02:48;;;;;;;7.05;4.72;;;;;;;;;;5074646;28;20035;-68
2022/11/19 14:05:35;;;;;;;7.70;5.05;;;;;;;;;;5074364;28;20086;-69
2022/11/19 14:08:19;;;;;;;8.05;5.07;;;;;;;;;;5056431;28;20029;-69
2022/11/19 14:11:03;;;;;;;5.38;4.60;;;;;;;;;;5074115;28;20087;-69
2022/11/19 14:13:39;;;;;;;6.05;4.68;;;;;;;;;;5074612;28;20048;-68
2022/11/19 14:28:49;;;;;;;7.03;5.22;;;;;;;;;;5074016;28;20487;-70
2022/11/19 14:31:16;;;;;;;6.53;5.00;;;;;;;;;;5074190;28;20029;-70
2022/11/19 14:33:48;;;;;;;8.88;5.00;;;;;;;;;;5073810;28;20103;-69
2022/11/19 14:36:19;;;;;;;7.03;5.22;;;;;;;;;;5073807;28;20031;-70
2022/11/19 14:38:55;;;;;;;8.35;5.18;;;;;;;;;;5074071;28;20024;-69
2022/11/19 14:41:34;;;;;;;6.32;4.57;;;;;;;;;;5074100;28;20414;-70
2022/11/19 14:44:31;;;;;;;8.38;5.10;;;;;;;;;;5073869;28;20041;-68
2022/11/19 14:47:23;;;;;;;9.98;5.03;;;;;;;;;;5060221;28;20039;-71
2022/11/19 14:49:55;;;;;;;12.50;4.72;;;;;;;;;;5073432;28;20529;-69
2022/11/19 14:52:21;;;;;;;7.43;5.00;;;;;;;;;;5073669;28;20384;-71
2022/11/19 14:55:13;;;;;;;7.05;5.03;;;;;;;;;;5073452;28;20042;-68
2022/11/19 14:57:41;;;;;;;12.13;5.18;;;;;;;;;;5072918;28;20040;-70
2022/11/19 15:00:33;;;;;;;8.23;5.53;;;;;;;;;;5073158;28;20024;-70
2022/11/19 15:03:01;;;;;;;7.85;5.25;;;;;;;;;;5073411;28;20082;-70
2022/11/19 15:05:32;;;;;;;10.50;6.30;;;;;;;;;;5073304;28;20025;-69
2022/11/19 15:08:15;;;;;;;10.93;5.47;;;;;;;;;;5072820;28;20375;-70
2022/11/19 15:11:04;;;;;;;9.73;5.43;;;;;;;;;;5072987;28;20040;-69
2022/11/19 15:13:39;;;;;;;11.98;7.15;;;;;;;;;;5073189;28;20487;-70
2022/11/19 15:16:26;;;;;;;12.02;6.20;;;;;;;;;;5055042;28;20036;-71
2022/11/19 15:19:06;;;;;;;11.52;5.30;;;;;;;;;;5073070;28;20024;-70
2022/11/19 15:21:43;;;;;;;;;;;;;;;;;;5073251;28;20107;-70
2022/11/19 15:24:24;;;;;;;10.15;5.28;;;;;;;;;;5072898;28;19954;-67
2022/11/19 15:26:58;;;;;;;10.63;6.00;;;;;;;;;;5073253;28;20079;-71
2022/11/19 15:29:40;;;;;;;12.63;5.93;;;;;;;;;;5055032;28;20626;-71
2022/11/19 15:32:41;;;;;;;8.18;5.28;;;;;;;;;;5072912;28;20419;-70
2022/11/19 15:35:18;;;;;;;10.23;5.80;;;;;;;;;;5034308;28;20078;-71
2022/11/19 15:37:57;;;;;;;11.05;5.13;;;;;;;;;;5072660;28;20427;-70
2022/11/19 15:40:29;;;;;;;9.38;5.40;;;;;;;;;;5072672;28;20028;-70
2022/11/19 15:43:17;;;;;;;9.95;5.70;;;;;;;;;;5072559;28;20032;-69